createdAt,value
2018-11-14T00:02:10.448Z,100893.00
2018-11-14T00:04:40.519Z,100899.00
2018-11-14T00:07:10.349Z,100903.00
2018-11-14T00:09:40.049Z,100901.00
2018-11-14T00:12:09.713Z,100906.00
2018-11-14T00:14:39.997Z,100916.00
2018-11-14T00:17:10.170Z,100912.00
2018-11-14T00:19:40.485Z,100917.00
2018-11-14T00:22:10.070Z,100925.00
2018-11-14T00:24:40.339Z,100921.00
2018-11-14T00:27:09.999Z,100919.00
2018-11-14T00:29:39.790Z,100926.00
2018-11-14T00:32:09.394Z,100905.00
2018-11-14T00:34:39.014Z,100923.00
2018-11-14T00:37:08.945Z,100929.00
2018-11-14T00:39:38.705Z,100921.00
2018-11-14T00:42:08.330Z,100921.00
2018-11-14T00:44:37.892Z,100924.00
2018-11-14T00:47:07.790Z,100931.00
2018-11-14T00:49:37.391Z,100927.00
2018-11-14T00:52:07.757Z,100926.00
2018-11-14T00:54:37.980Z,100931.00
2018-11-14T00:57:07.611Z,100927.00
2018-11-14T00:59:37.230Z,100927.00
2018-11-14T01:02:07.160Z,100932.00
2018-11-14T01:04:37.718Z,100931.00
2018-11-14T01:07:07.589Z,100930.00
2018-11-14T01:09:37.096Z,100931.00
2018-11-14T01:12:07.471Z,100933.00
2018-11-14T01:14:37.903Z,100940.00
2018-11-14T01:17:07.784Z,100937.00
2018-11-14T01:19:37.327Z,100933.00
2018-11-14T01:22:07.296Z,100930.00
2018-11-14T01:24:36.795Z,100941.00
2018-11-14T01:27:07.096Z,100945.00
2018-11-14T01:29:36.847Z,100935.00
2018-11-14T01:32:06.822Z,100938.00
2018-11-14T01:34:36.508Z,100938.00
2018-11-14T01:37:06.962Z,100939.00
2018-11-14T01:39:36.563Z,100940.00
2018-11-14T01:42:12.975Z,100941.00
2018-11-14T01:44:42.586Z,100930.00
2018-11-14T01:47:12.127Z,100939.00
2018-11-14T01:49:41.724Z,100950.00
2018-11-14T01:52:11.404Z,100937.00
2018-11-14T01:54:41.012Z,100945.00
2018-11-14T01:57:10.690Z,100952.00
2018-11-14T01:59:40.398Z,100953.00
2018-11-14T02:02:10.131Z,100944.00
2018-11-14T02:04:40.037Z,100950.00
2018-11-14T02:07:09.639Z,100948.00
2018-11-14T02:09:39.190Z,100960.00
2018-11-14T02:12:08.764Z,100947.00
2018-11-14T02:14:38.858Z,100940.00
2018-11-14T02:17:08.667Z,100958.00
2018-11-14T02:19:39.106Z,100960.00
2018-11-14T02:22:09.050Z,100956.00
2018-11-14T02:24:38.704Z,100958.00
2018-11-14T02:27:08.358Z,100965.00
2018-11-14T02:29:37.832Z,100962.00
2018-11-14T02:32:07.789Z,100970.00
2018-11-14T02:34:38.180Z,100969.00
2018-11-14T02:37:08.356Z,100971.00
2018-11-14T02:39:37.906Z,100966.00
2018-11-14T02:42:07.518Z,100971.00
2018-11-14T02:44:37.188Z,100971.00
2018-11-14T02:47:07.204Z,100958.00
2018-11-14T02:49:36.730Z,100964.00
2018-11-14T02:52:06.904Z,100970.00
2018-11-14T02:54:36.555Z,100967.00
2018-11-14T02:57:06.614Z,100971.00
2018-11-14T02:59:36.079Z,100963.00
2018-11-14T03:02:06.321Z,100961.00
2018-11-14T03:04:36.025Z,100968.00
2018-11-14T03:07:05.681Z,100967.00
2018-11-14T03:09:36.164Z,100965.00
2018-11-14T03:12:06.606Z,100965.00
2018-11-14T03:14:36.271Z,100969.00
2018-11-14T03:17:06.245Z,100950.00
2018-11-14T03:19:36.131Z,100966.00
2018-11-14T03:22:05.989Z,100972.00
2018-11-14T03:24:36.276Z,100974.00
2018-11-14T03:27:06.137Z,100979.00
2018-11-14T03:29:35.863Z,100984.00
2018-11-14T03:32:05.490Z,100977.00
2018-11-14T03:34:35.037Z,100961.00
2018-11-14T03:37:04.757Z,100971.00
2018-11-14T03:39:34.242Z,100973.00
2018-11-14T03:42:03.848Z,100977.00
2018-11-14T03:44:33.474Z,100972.00
2018-11-14T03:47:03.245Z,100977.00
2018-11-14T03:49:32.918Z,100971.00
2018-11-14T03:52:02.902Z,100968.00
2018-11-14T03:54:32.566Z,100974.00
2018-11-14T03:57:02.089Z,100977.00
2018-11-14T03:59:31.858Z,100977.00
2018-11-14T04:02:01.577Z,100974.00
2018-11-14T04:04:31.499Z,100982.00
2018-11-14T04:07:01.166Z,100978.00
2018-11-14T04:09:30.754Z,100980.00
2018-11-14T04:12:00.414Z,100969.00
2018-11-14T04:14:30.206Z,100971.00
2018-11-14T04:16:59.953Z,100970.00
2018-11-14T04:19:29.910Z,100973.00
2018-11-14T04:21:59.578Z,100962.00
2018-11-14T04:24:29.207Z,100967.00
2018-11-14T04:26:58.693Z,100952.00
2018-11-14T04:29:28.927Z,100968.00
2018-11-14T04:31:58.636Z,100956.00
2018-11-14T04:34:28.334Z,100961.00
2018-11-14T04:36:58.177Z,100964.00
2018-11-14T04:39:28.205Z,100959.00
2018-11-14T04:41:58.256Z,100965.00
2018-11-14T04:44:28.494Z,100961.00
2018-11-14T04:46:58.094Z,100964.00
2018-11-14T04:49:27.590Z,100970.00
2018-11-14T04:51:57.309Z,100975.00
2018-11-14T04:54:26.997Z,100969.00
2018-11-14T04:56:57.106Z,100967.00
2018-11-14T04:59:26.830Z,100961.00
2018-11-14T05:01:56.396Z,100954.00
2018-11-14T05:04:26.213Z,100951.00
2018-11-14T05:06:56.506Z,100957.00
2018-11-14T05:09:26.406Z,100959.00
2018-11-14T05:11:56.372Z,100958.00
2018-11-14T05:14:26.906Z,100966.00
2018-11-14T05:16:57.506Z,100964.00
2018-11-14T05:19:28.347Z,100959.00
2018-11-14T05:21:58.512Z,100964.00
2018-11-14T05:24:28.790Z,100970.00
2018-11-14T05:26:59.202Z,100969.00
2018-11-14T05:29:32.273Z,100972.00
2018-11-14T05:32:01.972Z,100969.00
2018-11-14T05:34:32.120Z,100975.00
2018-11-14T05:37:02.427Z,100978.00
2018-11-14T05:39:32.373Z,100968.00
2018-11-14T05:42:02.536Z,100964.00
2018-11-14T05:44:32.427Z,100963.00
2018-11-14T05:47:02.779Z,100959.00
2018-11-14T05:49:32.986Z,100959.00
2018-11-14T05:52:03.709Z,100968.00
2018-11-14T05:54:33.570Z,100962.00
2018-11-14T05:57:04.737Z,100956.00
2018-11-14T05:59:35.022Z,100948.00
2018-11-14T06:02:04.684Z,100951.00
2018-11-14T06:04:34.570Z,100962.00
2018-11-14T06:07:04.350Z,100964.00
2018-11-14T06:09:34.219Z,100953.00
2018-11-14T06:12:04.666Z,100956.00
2018-11-14T06:14:36.380Z,100966.00
2018-11-14T06:17:06.669Z,100962.00
2018-11-14T06:19:37.476Z,100959.00
2018-11-14T06:22:07.489Z,100960.00
2018-11-14T06:24:37.246Z,100973.00
2018-11-14T06:27:07.093Z,100980.00
2018-11-14T06:29:37.152Z,100973.00
2018-11-14T06:32:07.077Z,100973.00
2018-11-14T06:34:36.853Z,100985.00
2018-11-14T06:37:07.764Z,100990.00
2018-11-14T06:39:37.321Z,100995.00
2018-11-14T06:42:07.267Z,100988.00
2018-11-14T06:44:36.944Z,100990.00
2018-11-14T06:47:06.573Z,100995.00
2018-11-14T06:49:36.101Z,101006.00
2018-11-14T06:52:06.063Z,100989.00
2018-11-14T06:54:36.070Z,100994.00
2018-11-14T06:57:05.960Z,100990.00
2018-11-14T06:59:35.507Z,100985.00
2018-11-14T07:02:05.303Z,100985.00
2018-11-14T07:04:34.853Z,100998.00
2018-11-14T07:07:04.522Z,100989.00
2018-11-14T07:09:34.197Z,100989.00
2018-11-14T07:12:03.651Z,100993.00
2018-11-14T07:14:33.400Z,100992.00
2018-11-14T07:17:03.093Z,100984.00
2018-11-14T07:19:32.502Z,100979.00
2018-11-14T07:22:02.226Z,100985.00
2018-11-14T07:24:31.845Z,100985.00
2018-11-14T07:27:01.421Z,100989.00
2018-11-14T07:29:30.878Z,100998.00
2018-11-14T07:32:00.735Z,101001.00
2018-11-14T07:34:30.083Z,101002.00
2018-11-14T07:36:59.948Z,101000.00
2018-11-14T07:39:29.456Z,101007.00
2018-11-14T07:41:58.938Z,101006.00
2018-11-14T07:44:28.512Z,101008.00
2018-11-14T07:46:57.918Z,101010.00
2018-11-14T07:49:27.368Z,101004.00
2018-11-14T07:51:56.834Z,100999.00
2018-11-14T07:54:26.606Z,101005.00
2018-11-14T07:56:56.013Z,101010.00
2018-11-14T07:59:25.585Z,101007.00
2018-11-14T08:01:55.210Z,101003.00
2018-11-14T08:04:24.614Z,101000.00
2018-11-14T08:06:54.062Z,101014.00
2018-11-14T08:09:23.460Z,101012.00
2018-11-14T08:11:53.259Z,101012.00
2018-11-14T08:14:22.785Z,101004.00
2018-11-14T08:16:52.334Z,101009.00
2018-11-14T08:19:21.933Z,101003.00
2018-11-14T08:21:51.440Z,101012.00
2018-11-14T08:24:21.019Z,101023.00
2018-11-14T08:26:50.897Z,101020.00
2018-11-14T08:29:20.327Z,101023.00
2018-11-14T08:31:49.947Z,101022.00
2018-11-14T08:34:19.440Z,101019.00
2018-11-14T08:36:48.894Z,101026.00
2018-11-14T08:39:18.513Z,101025.00
2018-11-14T08:41:47.971Z,101022.00
2018-11-14T08:44:17.355Z,101029.00
2018-11-14T08:46:46.850Z,101030.00
2018-11-14T08:49:16.221Z,101023.00
2018-11-14T08:51:45.713Z,101034.00
2018-11-14T08:54:21.581Z,101030.00
2018-11-14T08:56:51.203Z,101039.00
2018-11-14T08:59:20.755Z,101040.00
2018-11-14T09:01:50.185Z,101036.00
2018-11-14T09:04:19.713Z,101042.00
2018-11-14T09:06:49.125Z,101046.00
2018-11-14T09:09:18.586Z,101038.00
2018-11-14T09:11:48.067Z,101040.00
2018-11-14T09:14:17.549Z,101038.00
2018-11-14T09:16:46.980Z,101040.00
2018-11-14T09:19:16.633Z,101050.00
2018-11-14T09:21:46.415Z,101039.00
2018-11-14T09:24:15.900Z,101039.00
2018-11-14T09:26:45.532Z,101047.00
2018-11-14T09:29:15.086Z,101051.00
2018-11-14T09:31:44.653Z,101057.00
2018-11-14T09:34:14.129Z,101063.00
2018-11-14T09:36:43.529Z,101059.00
2018-11-14T09:39:13.694Z,101058.00
2018-11-14T09:41:43.277Z,101063.00
2018-11-14T09:44:12.603Z,101055.00
2018-11-14T09:46:42.194Z,101058.00
2018-11-14T09:49:11.750Z,101051.00
2018-11-14T09:51:41.289Z,101058.00
2018-11-14T09:54:10.864Z,101059.00
2018-11-14T09:56:40.388Z,101058.00
2018-11-14T09:59:10.055Z,101068.00
2018-11-14T10:01:39.511Z,101068.00
2018-11-14T10:04:10.425Z,101054.00
2018-11-14T10:06:39.822Z,101057.00
2018-11-14T10:09:12.367Z,101055.00
2018-11-14T10:11:41.883Z,101056.00
2018-11-14T10:14:11.791Z,101042.00
2018-11-14T10:16:41.475Z,101049.00
2018-11-14T10:19:12.057Z,101047.00
2018-11-14T10:21:41.667Z,101046.00
2018-11-14T10:24:11.197Z,101046.00
2018-11-14T10:26:40.822Z,101039.00
2018-11-14T10:29:10.326Z,101028.00
2018-11-14T10:31:39.901Z,101027.00
2018-11-14T10:34:09.276Z,101026.00
2018-11-14T10:36:38.834Z,101023.00
2018-11-14T10:39:11.483Z,101015.00
2018-11-14T10:41:41.798Z,101015.00
2018-11-14T10:44:11.333Z,101006.00
2018-11-14T10:46:40.731Z,101002.00
2018-11-14T10:49:10.272Z,101005.00
2018-11-14T10:51:39.726Z,101005.00
2018-11-14T10:54:09.238Z,101011.00
2018-11-14T10:56:38.644Z,101007.00
2018-11-14T10:59:08.218Z,101008.00
2018-11-14T11:01:43.138Z,101009.00
2018-11-14T11:04:18.103Z,101012.00
2018-11-14T11:06:52.968Z,101010.00
2018-11-14T11:09:27.534Z,101006.00
2018-11-14T11:12:02.248Z,101013.00
2018-11-14T11:14:36.573Z,101003.00
2018-11-14T11:17:11.436Z,101012.00
2018-11-14T11:19:40.875Z,101015.00
2018-11-14T11:22:10.458Z,101018.00
2018-11-14T11:24:39.833Z,101012.00
2018-11-14T11:27:09.269Z,101008.00
2018-11-14T11:29:38.763Z,101008.00
2018-11-14T11:32:08.381Z,101010.00
2018-11-14T11:34:37.705Z,101006.00
2018-11-14T11:37:07.528Z,101010.00
2018-11-14T11:39:37.081Z,100995.00
2018-11-14T11:42:06.589Z,101005.00
2018-11-14T11:44:36.077Z,101003.00
2018-11-14T11:47:05.650Z,100998.00
2018-11-14T11:49:35.053Z,100992.00
2018-11-14T11:52:04.685Z,100995.00
2018-11-14T11:54:34.226Z,100983.00
2018-11-14T11:57:03.765Z,100985.00
2018-11-14T11:59:33.225Z,100978.00
2018-11-14T12:02:03.169Z,100982.00
2018-11-14T12:04:32.718Z,100981.00
2018-11-14T12:07:02.201Z,100977.00
2018-11-14T12:09:31.836Z,100977.00
2018-11-14T12:12:01.370Z,100981.00
2018-11-14T12:14:30.819Z,100972.00
2018-11-14T12:17:00.323Z,100975.00
2018-11-14T12:19:29.813Z,100972.00
2018-11-14T12:21:59.585Z,100971.00
2018-11-14T12:24:29.161Z,100967.00
2018-11-14T12:26:58.734Z,100968.00
2018-11-14T12:29:28.494Z,100969.00
2018-11-14T12:31:57.996Z,100966.00
2018-11-14T12:34:27.782Z,100971.00
2018-11-14T12:36:57.344Z,100972.00
2018-11-14T12:39:26.911Z,100977.00
2018-11-14T12:41:56.429Z,100979.00
2018-11-14T12:44:26.110Z,100980.00
2018-11-14T12:46:55.758Z,100974.00
2018-11-14T12:49:25.206Z,100959.00
2018-11-14T12:51:54.996Z,100965.00
2018-11-14T12:54:24.637Z,100973.00
2018-11-14T12:56:54.124Z,100973.00
2018-11-14T12:59:23.941Z,100969.00
2018-11-14T13:01:53.522Z,100966.00
2018-11-14T13:04:23.155Z,100966.00
2018-11-14T13:06:53.689Z,100963.00
2018-11-14T13:09:23.167Z,100973.00
2018-11-14T13:11:52.685Z,100971.00
2018-11-14T13:14:22.209Z,100975.00
2018-11-14T13:16:51.720Z,100974.00
2018-11-14T13:19:21.424Z,100965.00
2018-11-14T13:21:50.942Z,100963.00
2018-11-14T13:24:20.408Z,100962.00
2018-11-14T13:26:50.113Z,100953.00
2018-11-14T13:29:19.840Z,100949.00
2018-11-14T13:31:49.792Z,100937.00
2018-11-14T13:34:19.814Z,100939.00
2018-11-14T13:36:49.344Z,100927.00
2018-11-14T13:39:19.021Z,100925.00
2018-11-14T13:41:48.812Z,100926.00
2018-11-14T13:44:19.640Z,100929.00
2018-11-14T13:46:50.137Z,100930.00
2018-11-14T13:49:20.064Z,100923.00
2018-11-14T13:51:49.738Z,100925.00
2018-11-14T13:54:19.847Z,100929.00
2018-11-14T13:56:49.626Z,100921.00
2018-11-14T13:59:19.424Z,100923.00
2018-11-14T14:01:49.086Z,100934.00
2018-11-14T14:04:18.501Z,100929.00
2018-11-14T14:06:48.306Z,100930.00
2018-11-14T14:09:18.743Z,100932.00
2018-11-14T14:11:48.309Z,100929.00
2018-11-14T14:14:18.751Z,100927.00
2018-11-14T14:16:48.193Z,100914.00
2018-11-14T14:19:17.944Z,100915.00
2018-11-14T14:21:47.560Z,100926.00
2018-11-14T14:24:17.154Z,100926.00
2018-11-14T14:26:46.595Z,100926.00
2018-11-14T14:29:16.379Z,100921.00
2018-11-14T14:31:45.912Z,100916.00
2018-11-14T14:34:15.666Z,100927.00
2018-11-14T14:36:45.291Z,100933.00
2018-11-14T14:39:14.697Z,100924.00
2018-11-14T14:41:44.311Z,100934.00
2018-11-14T14:44:13.818Z,100933.00
2018-11-14T14:46:43.467Z,100949.00
2018-11-14T14:49:13.538Z,100950.00
2018-11-14T14:51:43.256Z,100941.00
2018-11-14T14:54:12.792Z,100945.00
2018-11-14T14:56:42.519Z,100945.00
2018-11-14T14:59:12.129Z,100948.00
2018-11-14T15:01:41.749Z,100952.00
2018-11-14T15:04:11.232Z,100958.00
2018-11-14T15:06:41.046Z,100953.00
2018-11-14T15:09:11.595Z,100974.00
2018-11-14T15:11:41.121Z,100966.00
2018-11-14T15:14:10.909Z,100959.00
2018-11-14T15:16:40.534Z,100962.00
2018-11-14T15:19:10.153Z,100955.00
2018-11-14T15:21:39.662Z,100963.00
2018-11-14T15:24:09.450Z,100964.00
2018-11-14T15:26:39.310Z,100954.00
2018-11-14T15:29:09.139Z,100951.00
2018-11-14T15:31:38.712Z,100959.00
2018-11-14T15:34:08.854Z,100953.00
2018-11-14T15:36:39.007Z,100955.00
2018-11-14T15:39:11.473Z,100948.00
2018-11-14T15:41:42.203Z,100953.00
2018-11-14T15:44:12.091Z,100952.00
2018-11-14T15:46:42.266Z,100956.00
2018-11-14T15:49:12.438Z,100956.00
2018-11-14T15:51:42.591Z,100956.00
2018-11-14T15:54:15.173Z,100956.00
2018-11-14T15:56:45.181Z,100962.00
2018-11-14T15:59:14.857Z,100954.00
2018-11-14T16:01:44.636Z,100960.00
2018-11-14T16:04:15.987Z,100951.00
2018-11-14T16:06:45.943Z,100954.00
2018-11-14T16:09:15.939Z,100960.00
2018-11-14T16:11:45.858Z,100953.00
2018-11-14T16:14:16.144Z,100946.00
2018-11-14T16:16:45.803Z,100950.00
2018-11-14T16:19:15.386Z,100956.00
2018-11-14T16:21:45.064Z,100935.00
2018-11-14T16:24:14.681Z,100946.00
2018-11-14T16:26:44.691Z,100949.00
2018-11-14T16:29:14.852Z,100953.00
2018-11-14T16:31:46.070Z,100967.00
2018-11-14T16:34:17.229Z,100969.00
2018-11-14T16:36:46.975Z,100955.00
2018-11-14T16:39:16.908Z,100949.00
2018-11-14T16:41:46.628Z,100956.00
2018-11-14T16:44:17.110Z,100953.00
2018-11-14T16:46:47.083Z,100956.00
2018-11-14T16:49:18.309Z,100948.00
2018-11-14T16:51:47.957Z,100962.00
2018-11-14T16:54:17.811Z,100956.00
2018-11-14T16:56:47.387Z,100953.00
2018-11-14T16:59:17.978Z,100952.00
2018-11-14T17:01:47.621Z,100953.00
2018-11-14T17:04:17.621Z,100952.00
2018-11-14T17:06:48.092Z,100946.00
2018-11-14T17:09:17.815Z,100950.00
2018-11-14T17:11:48.940Z,100937.00
2018-11-14T17:14:18.810Z,100935.00
2018-11-14T17:16:49.755Z,100939.00
2018-11-14T17:19:20.743Z,100946.00
2018-11-14T17:21:50.345Z,100945.00
2018-11-14T17:24:20.660Z,100953.00
2018-11-14T17:26:52.290Z,100950.00
2018-11-14T17:29:23.407Z,100953.00
2018-11-14T17:31:53.562Z,100960.00
2018-11-14T17:34:23.529Z,100962.00
2018-11-14T17:36:53.346Z,100959.00
2018-11-14T17:39:24.493Z,100963.00
2018-11-14T17:41:55.596Z,100954.00
2018-11-14T17:44:25.091Z,100947.00
2018-11-14T17:46:56.279Z,100951.00
2018-11-14T17:49:27.357Z,100948.00
2018-11-14T17:51:58.537Z,100947.00
2018-11-14T17:54:29.229Z,100947.00
2018-11-14T17:56:59.525Z,100946.00
2018-11-14T17:59:29.768Z,100938.00
2018-11-14T18:02:00.296Z,100948.00
2018-11-14T18:04:32.646Z,100950.00
2018-11-14T18:07:10.582Z,100938.00
2018-11-14T18:09:41.951Z,100943.00
2018-11-14T18:12:12.777Z,100927.00
2018-11-14T18:14:44.107Z,100926.00
2018-11-14T18:17:16.000Z,100939.00
2018-11-14T18:19:45.942Z,100940.00
2018-11-14T18:22:15.851Z,100944.00
2018-11-14T18:24:45.501Z,100942.00
2018-11-14T18:27:15.128Z,100946.00
2018-11-14T18:29:45.154Z,100937.00
2018-11-14T18:32:14.854Z,100945.00
2018-11-14T18:34:44.431Z,100930.00
2018-11-14T18:37:14.170Z,100935.00
2018-11-14T18:39:43.899Z,100936.00
2018-11-14T18:42:13.472Z,100945.00
2018-11-14T18:44:43.516Z,100950.00
2018-11-14T18:47:13.512Z,100951.00
2018-11-14T18:49:43.121Z,100946.00
2018-11-14T18:52:13.117Z,100959.00
2018-11-14T18:54:42.772Z,100961.00
2018-11-14T18:57:13.370Z,100969.00
2018-11-14T18:59:43.499Z,100975.00
2018-11-14T19:02:13.238Z,100980.00
2018-11-14T19:04:43.185Z,100976.00
2018-11-14T19:07:12.898Z,100971.00
2018-11-14T19:09:42.800Z,100969.00
2018-11-14T19:12:12.559Z,100965.00
2018-11-14T19:14:42.300Z,100971.00
2018-11-14T19:17:13.831Z,100963.00
2018-11-14T19:19:44.207Z,100963.00
2018-11-14T19:22:14.038Z,100971.00
2018-11-14T19:24:43.903Z,100969.00
2018-11-14T19:27:13.591Z,100962.00
2018-11-14T19:29:43.436Z,100976.00
2018-11-14T19:32:13.389Z,100967.00
2018-11-14T19:34:43.084Z,100963.00
2018-11-14T19:37:13.171Z,100966.00
2018-11-14T19:39:42.849Z,100954.00
2018-11-14T19:42:12.699Z,100963.00
2018-11-14T19:44:43.382Z,100964.00
2018-11-14T19:47:13.157Z,100964.00
2018-11-14T19:49:42.769Z,100962.00
2018-11-14T19:52:12.533Z,100972.00
2018-11-14T19:54:42.653Z,100961.00
2018-11-14T19:57:12.788Z,100969.00
2018-11-14T19:59:43.548Z,100965.00
2018-11-14T20:02:13.608Z,100978.00
2018-11-14T20:04:43.741Z,100974.00
2018-11-14T20:07:14.237Z,100970.00
2018-11-14T20:09:44.838Z,100971.00
2018-11-14T20:12:14.721Z,100971.00
2018-11-14T20:14:44.514Z,100972.00
2018-11-14T20:17:15.597Z,100971.00
2018-11-14T20:19:45.571Z,100971.00
2018-11-14T20:22:15.125Z,100968.00
2018-11-14T20:24:44.779Z,100966.00
2018-11-14T20:27:14.808Z,100957.00
2018-11-14T20:29:44.929Z,100947.00
2018-11-14T20:32:14.756Z,100943.00
2018-11-14T20:34:44.511Z,100949.00
2018-11-14T20:37:14.366Z,100951.00
2018-11-14T20:39:44.941Z,100952.00
2018-11-14T20:42:15.621Z,100940.00
2018-11-14T20:44:45.428Z,100940.00
2018-11-14T20:47:16.876Z,100948.00
2018-11-14T20:49:47.374Z,100953.00
2018-11-14T20:52:17.151Z,100938.00
2018-11-14T20:54:46.739Z,100947.00
2018-11-14T20:57:16.761Z,100948.00
2018-11-14T20:59:46.691Z,100938.00
2018-11-14T21:02:16.421Z,100944.00
2018-11-14T21:04:46.149Z,100939.00
2018-11-14T21:07:15.884Z,100931.00
2018-11-14T21:09:45.714Z,100946.00
2018-11-14T21:12:15.527Z,100948.00
2018-11-14T21:14:45.368Z,100955.00
2018-11-14T21:17:15.507Z,100944.00
2018-11-14T21:19:45.197Z,100940.00
2018-11-14T21:22:15.466Z,100939.00
2018-11-14T21:24:45.228Z,100946.00
2018-11-14T21:27:15.076Z,100943.00
2018-11-14T21:29:45.049Z,100941.00
2018-11-14T21:32:14.713Z,100935.00
2018-11-14T21:34:44.579Z,100939.00
2018-11-14T21:37:14.274Z,100940.00
2018-11-14T21:39:43.911Z,100947.00
2018-11-14T21:42:13.546Z,100938.00
2018-11-14T21:44:43.306Z,100938.00
2018-11-14T21:47:13.627Z,100942.00
2018-11-14T21:49:43.334Z,100944.00
2018-11-14T21:52:13.184Z,100939.00
2018-11-14T21:54:42.969Z,100945.00
2018-11-14T21:57:12.734Z,100950.00
2018-11-14T21:59:42.405Z,100939.00
2018-11-14T22:02:12.246Z,100943.00
2018-11-14T22:04:41.990Z,100940.00
2018-11-14T22:07:11.792Z,100935.00
2018-11-14T22:09:41.635Z,100946.00
2018-11-14T22:12:11.341Z,100955.00
2018-11-14T22:14:41.145Z,100955.00
2018-11-14T22:17:11.032Z,100950.00
2018-11-14T22:19:40.843Z,100956.00
2018-11-14T22:22:10.849Z,100947.00
2018-11-14T22:24:40.531Z,100951.00
2018-11-14T22:27:10.232Z,100944.00
2018-11-14T22:29:40.039Z,100943.00
2018-11-14T22:32:10.266Z,100943.00
2018-11-14T22:34:40.072Z,100955.00
2018-11-14T22:37:09.863Z,100947.00
2018-11-14T22:39:39.522Z,100936.00
2018-11-14T22:42:09.273Z,100945.00
2018-11-14T22:44:39.146Z,100945.00
2018-11-14T22:47:08.847Z,100935.00
2018-11-14T22:49:38.682Z,100935.00
2018-11-14T22:52:08.786Z,100926.00
2018-11-14T22:54:38.754Z,100919.00
2018-11-14T22:57:08.793Z,100928.00
2018-11-14T22:59:38.708Z,100922.00
2018-11-14T23:02:08.623Z,100911.00
2018-11-14T23:04:38.508Z,100916.00
2018-11-14T23:07:08.295Z,100920.00
2018-11-14T23:09:38.084Z,100921.00
2018-11-14T23:12:07.911Z,100915.00
2018-11-14T23:14:38.526Z,100921.00
2018-11-14T23:17:08.339Z,100911.00
2018-11-14T23:19:38.182Z,100922.00
2018-11-14T23:22:07.928Z,100921.00
2018-11-14T23:24:37.663Z,100915.00
2018-11-14T23:27:07.891Z,100908.00
2018-11-14T23:29:37.690Z,100922.00
2018-11-14T23:32:07.359Z,100914.00
2018-11-14T23:34:41.168Z,100915.00
2018-11-14T23:37:11.139Z,100906.00
2018-11-14T23:39:40.806Z,100902.00
2018-11-14T23:42:10.466Z,100894.00
2018-11-14T23:44:40.243Z,100890.00
2018-11-14T23:47:10.260Z,100885.00
2018-11-14T23:49:39.863Z,100887.00
2018-11-14T23:52:09.639Z,100895.00
2018-11-14T23:54:39.555Z,100888.00
2018-11-14T23:57:09.317Z,100886.00
2018-11-14T23:59:39.017Z,100885.00
